createdAt,value
2017-12-27T00:00:33.585Z,984.98
2017-12-27T00:01:14.090Z,984.98
2017-12-27T00:01:54.619Z,984.97
2017-12-27T00:02:35.186Z,984.98
2017-12-27T00:03:15.725Z,984.94
2017-12-27T00:03:56.291Z,984.96
2017-12-27T00:04:36.855Z,984.94
2017-12-27T00:05:17.371Z,984.93
2017-12-27T00:05:57.896Z,984.95
2017-12-27T00:06:38.477Z,984.94
2017-12-27T00:07:19.050Z,984.91
2017-12-27T00:07:59.554Z,984.91
2017-12-27T00:08:40.055Z,984.82
2017-12-27T00:09:20.641Z,984.8
2017-12-27T00:10:01.168Z,984.81
2017-12-27T00:10:41.728Z,984.78
2017-12-27T00:11:22.274Z,984.78
2017-12-27T00:12:02.797Z,984.77
2017-12-27T00:12:43.333Z,984.78
2017-12-27T00:13:23.878Z,984.77
2017-12-27T00:14:04.419Z,984.8
2017-12-27T00:14:44.950Z,984.77
2017-12-27T00:15:25.471Z,984.76
2017-12-27T00:16:06.010Z,984.77
2017-12-27T00:16:46.556Z,984.66
2017-12-27T00:17:27.101Z,984.67
2017-12-27T00:18:07.644Z,984.64
2017-12-27T00:18:48.204Z,984.65
2017-12-27T00:19:28.742Z,984.59
2017-12-27T00:20:09.241Z,984.59
2017-12-27T00:20:49.797Z,984.51
2017-12-27T00:21:30.416Z,984.49
2017-12-27T00:22:10.956Z,984.49
2017-12-27T00:22:51.509Z,984.46
2017-12-27T00:23:32.070Z,984.42
2017-12-27T00:24:12.649Z,984.4
2017-12-27T00:24:53.189Z,984.39
2017-12-27T00:25:33.716Z,984.32
2017-12-27T00:26:14.265Z,984.3
2017-12-27T00:26:54.806Z,984.22
2017-12-27T00:27:35.390Z,984.18
2017-12-27T00:28:15.878Z,984.17
2017-12-27T00:28:56.417Z,984.12
2017-12-27T00:29:36.997Z,984.11
2017-12-27T00:30:17.574Z,984.19
2017-12-27T00:30:58.138Z,984.21
2017-12-27T00:31:38.664Z,984.23
2017-12-27T00:32:19.217Z,984.24
2017-12-27T00:32:59.759Z,984.26
2017-12-27T00:33:40.314Z,984.23
2017-12-27T00:34:20.867Z,984.21
2017-12-27T00:35:02.188Z,984.23
2017-12-27T00:35:42.745Z,984.23
2017-12-27T00:36:23.290Z,984.24
2017-12-27T00:37:03.845Z,984.21
2017-12-27T00:37:44.397Z,984.19
2017-12-27T00:38:24.932Z,984.22
2017-12-27T00:39:05.489Z,984.22
2017-12-27T00:39:45.976Z,984.19
2017-12-27T00:40:26.564Z,984.21
2017-12-27T00:41:07.092Z,984.17
2017-12-27T00:41:47.601Z,984.13
2017-12-27T00:42:28.144Z,984.13
2017-12-27T00:43:08.682Z,984.07
2017-12-27T00:43:49.252Z,984.02
2017-12-27T00:44:29.779Z,984
2017-12-27T00:45:10.288Z,983.92
2017-12-27T00:45:50.826Z,983.89
2017-12-27T00:46:31.415Z,983.85
2017-12-27T00:47:11.962Z,983.86
2017-12-27T00:47:52.503Z,983.76
2017-12-27T00:48:33.045Z,983.78
2017-12-27T00:49:13.581Z,983.68
2017-12-27T00:49:54.132Z,983.65
2017-12-27T00:50:34.701Z,983.59
2017-12-27T00:51:15.236Z,983.54
2017-12-27T00:51:55.799Z,983.45
2017-12-27T00:52:36.340Z,983.43
2017-12-27T00:53:16.884Z,983.41
2017-12-27T00:53:57.389Z,983.4
2017-12-27T00:54:37.951Z,983.39
2017-12-27T00:55:18.478Z,983.37
2017-12-27T00:55:59.043Z,983.36
2017-12-27T00:56:39.613Z,983.34
2017-12-27T00:57:20.182Z,983.33
2017-12-27T00:58:00.721Z,983.34
2017-12-27T00:58:41.247Z,983.34
2017-12-27T00:59:21.774Z,983.38
2017-12-27T01:00:02.339Z,983.34
2017-12-27T01:00:42.886Z,983.33
2017-12-27T01:01:23.422Z,983.37
2017-12-27T01:02:03.974Z,983.26
2017-12-27T01:02:44.501Z,983.23
2017-12-27T01:03:25.073Z,983.25
2017-12-27T01:04:05.597Z,983.19
2017-12-27T01:04:46.139Z,983.19
2017-12-27T01:05:26.701Z,983.16
2017-12-27T01:06:07.228Z,983.17
2017-12-27T01:06:47.806Z,983.18
2017-12-27T01:07:28.291Z,983.2
2017-12-27T01:08:08.830Z,983.18
2017-12-27T01:08:49.400Z,983.15
2017-12-27T01:09:29.926Z,983.12
2017-12-27T01:10:10.456Z,983.11
2017-12-27T01:10:51.088Z,983.09
2017-12-27T01:11:31.656Z,983.09
2017-12-27T01:12:12.178Z,983.07
2017-12-27T01:12:52.740Z,983.05
2017-12-27T01:13:33.255Z,983.08
2017-12-27T01:14:13.794Z,983.06
2017-12-27T01:14:54.349Z,982.98
2017-12-27T01:15:34.868Z,982.97
2017-12-27T01:16:15.403Z,982.96
2017-12-27T01:16:55.962Z,982.99
2017-12-27T01:17:36.487Z,982.97
2017-12-27T01:18:17.038Z,982.9
2017-12-27T01:18:57.617Z,982.86
2017-12-27T01:19:38.150Z,982.82
2017-12-27T01:20:18.727Z,982.83
2017-12-27T01:20:59.281Z,982.74
2017-12-27T01:21:39.803Z,982.68
2017-12-27T01:22:20.361Z,982.66
2017-12-27T01:23:00.906Z,982.66
2017-12-27T01:23:41.409Z,982.71
2017-12-27T01:24:21.949Z,982.66
2017-12-27T01:25:02.496Z,982.65
2017-12-27T01:25:43.017Z,982.63
2017-12-27T01:26:23.559Z,982.63
2017-12-27T01:27:04.066Z,982.59
2017-12-27T01:27:44.610Z,982.59
2017-12-27T01:28:25.176Z,982.61
2017-12-27T01:29:05.700Z,982.6
2017-12-27T01:29:46.269Z,982.61
2017-12-27T01:30:26.807Z,982.66
2017-12-27T01:31:07.356Z,982.64
2017-12-27T01:31:47.924Z,982.68
2017-12-27T01:32:28.458Z,982.66
2017-12-27T01:33:09.003Z,982.66
2017-12-27T01:33:49.561Z,982.67
2017-12-27T01:34:30.112Z,982.68
2017-12-27T01:35:10.678Z,982.69
2017-12-27T01:35:51.230Z,982.7
2017-12-27T01:36:31.724Z,982.7
2017-12-27T01:37:12.293Z,982.73
2017-12-27T01:37:52.832Z,982.68
2017-12-27T01:38:33.369Z,982.67
2017-12-27T01:39:13.926Z,982.7
2017-12-27T01:39:54.517Z,982.65
2017-12-27T01:40:35.053Z,982.6
2017-12-27T01:41:15.574Z,982.56
2017-12-27T01:41:56.123Z,982.52
2017-12-27T01:42:36.676Z,982.47
2017-12-27T01:43:17.211Z,982.46
2017-12-27T01:43:57.776Z,982.44
2017-12-27T01:44:38.340Z,982.36
2017-12-27T01:45:18.846Z,982.26
2017-12-27T01:45:59.348Z,982.22
2017-12-27T01:46:39.898Z,982.21
2017-12-27T01:47:20.472Z,982.2
2017-12-27T01:48:01.001Z,982.15
2017-12-27T01:48:41.554Z,982.21
2017-12-27T01:49:22.090Z,982.09
2017-12-27T01:50:02.640Z,982.16
2017-12-27T01:50:43.226Z,982.13
2017-12-27T01:51:23.745Z,982.09
2017-12-27T01:52:04.300Z,982.09
2017-12-27T01:52:44.837Z,982.13
2017-12-27T01:53:25.394Z,982.07
2017-12-27T01:54:05.963Z,982.1
2017-12-27T01:54:46.480Z,982.04
2017-12-27T01:55:27.035Z,982.08
2017-12-27T01:56:07.552Z,982.05
2017-12-27T01:56:48.101Z,982.04
2017-12-27T01:57:28.614Z,982.04
2017-12-27T01:58:09.137Z,981.99
2017-12-27T01:58:49.703Z,982.02
2017-12-27T01:59:30.248Z,981.95
2017-12-27T02:00:10.793Z,981.91
2017-12-27T02:00:51.366Z,981.88
2017-12-27T02:01:31.902Z,981.88
2017-12-27T02:02:12.469Z,981.79
2017-12-27T02:02:53.020Z,981.8
2017-12-27T02:03:33.561Z,981.81
2017-12-27T02:04:14.113Z,981.76
2017-12-27T02:04:54.654Z,981.75
2017-12-27T02:05:35.197Z,981.72
2017-12-27T02:06:15.746Z,981.66
2017-12-27T02:06:56.318Z,981.63
2017-12-27T02:07:36.902Z,981.6
2017-12-27T02:08:17.414Z,981.6
2017-12-27T02:08:57.967Z,981.58
2017-12-27T02:09:38.532Z,981.51
2017-12-27T02:10:19.073Z,981.51
2017-12-27T02:10:59.640Z,981.55
2017-12-27T02:11:40.168Z,981.51
2017-12-27T02:12:20.701Z,981.43
2017-12-27T02:13:01.236Z,981.45
2017-12-27T02:13:41.764Z,981.36
2017-12-27T02:14:22.331Z,981.39
2017-12-27T02:15:02.869Z,981.36
2017-12-27T02:15:43.402Z,981.35
2017-12-27T02:16:23.982Z,981.37
2017-12-27T02:17:04.542Z,981.32
2017-12-27T02:17:45.061Z,981.25
2017-12-27T02:18:25.606Z,981.27
2017-12-27T02:19:06.144Z,981.19
2017-12-27T02:19:46.734Z,981.18
2017-12-27T02:20:27.252Z,981.17
2017-12-27T02:21:07.801Z,981.17
2017-12-27T02:21:48.333Z,981.16
2017-12-27T02:22:28.944Z,981.13
2017-12-27T02:23:09.470Z,981.1
2017-12-27T02:23:49.987Z,981.11
2017-12-27T02:24:30.545Z,981.11
2017-12-27T02:25:11.062Z,981.06
2017-12-27T02:25:51.596Z,981
2017-12-27T02:26:32.160Z,980.99
2017-12-27T02:27:12.697Z,980.96
2017-12-27T02:27:53.251Z,980.9
2017-12-27T02:28:33.791Z,980.91
2017-12-27T02:29:14.343Z,980.86
2017-12-27T02:29:54.880Z,980.95
2017-12-27T02:30:35.410Z,980.89
2017-12-27T02:31:15.970Z,980.85
2017-12-27T02:31:56.505Z,980.85
2017-12-27T02:32:37.019Z,980.83
2017-12-27T02:33:17.638Z,980.81
2017-12-27T02:33:58.929Z,980.75
2017-12-27T02:34:38.682Z,980.72
2017-12-27T02:35:19.234Z,980.63
2017-12-27T02:35:59.788Z,980.58
2017-12-27T02:36:40.341Z,980.63
2017-12-27T02:37:20.895Z,980.61
2017-12-27T02:38:01.396Z,980.63
2017-12-27T02:38:41.905Z,980.63
2017-12-27T02:39:22.433Z,980.63
2017-12-27T02:40:03.002Z,980.63
2017-12-27T02:40:43.537Z,980.65
2017-12-27T02:41:24.091Z,980.64
2017-12-27T02:42:04.668Z,980.62
2017-12-27T02:42:45.182Z,980.64
2017-12-27T02:43:25.707Z,980.63
2017-12-27T02:44:06.220Z,980.6
2017-12-27T02:44:46.753Z,980.57
2017-12-27T02:45:27.334Z,980.54
2017-12-27T02:46:07.872Z,980.56
2017-12-27T02:46:48.381Z,980.6
2017-12-27T02:47:28.925Z,980.58
2017-12-27T02:48:09.492Z,980.59
2017-12-27T02:48:49.991Z,980.6
2017-12-27T02:49:30.550Z,980.59
2017-12-27T02:50:11.121Z,980.59
2017-12-27T02:50:51.646Z,980.48
2017-12-27T02:51:32.207Z,980.39
2017-12-27T02:52:12.729Z,980.23
2017-12-27T02:52:53.255Z,980.26
2017-12-27T02:53:33.802Z,980.24
2017-12-27T02:54:14.359Z,980.22
2017-12-27T02:54:54.904Z,980.18
2017-12-27T02:55:35.461Z,980.18
2017-12-27T02:56:16.011Z,980.13
2017-12-27T02:56:56.559Z,980.07
2017-12-27T02:57:37.124Z,980.11
2017-12-27T02:58:17.681Z,980.08
2017-12-27T02:58:58.215Z,980.1
2017-12-27T02:59:38.767Z,980.05
2017-12-27T03:00:19.330Z,979.96
2017-12-27T03:00:59.858Z,979.94
2017-12-27T03:01:40.414Z,979.91
2017-12-27T03:02:20.962Z,979.84
2017-12-27T03:03:01.496Z,979.83
2017-12-27T03:03:42.058Z,979.85
2017-12-27T03:04:22.614Z,979.83
2017-12-27T03:05:03.163Z,979.76
2017-12-27T03:05:43.718Z,979.73
2017-12-27T03:06:24.259Z,979.7
2017-12-27T03:07:04.824Z,979.71
2017-12-27T03:07:45.381Z,979.74
2017-12-27T03:08:25.945Z,979.7
2017-12-27T03:09:06.504Z,979.67
2017-12-27T03:09:47.076Z,979.67
2017-12-27T03:10:27.579Z,979.64
2017-12-27T03:11:08.108Z,979.64
2017-12-27T03:11:48.678Z,979.59
2017-12-27T03:12:29.212Z,979.56
2017-12-27T03:13:09.671Z,979.54
2017-12-27T03:13:50.206Z,979.53
2017-12-27T03:14:30.760Z,979.54
2017-12-27T03:15:11.307Z,979.53
2017-12-27T03:15:51.882Z,979.54
2017-12-27T03:16:32.408Z,979.51
2017-12-27T03:17:12.962Z,979.53
2017-12-27T03:17:53.520Z,979.52
2017-12-27T03:18:34.088Z,979.51
2017-12-27T03:19:14.674Z,979.44
2017-12-27T03:19:55.180Z,979.46
2017-12-27T03:20:35.753Z,979.43
2017-12-27T03:21:16.312Z,979.4
2017-12-27T03:21:56.859Z,979.35
2017-12-27T03:22:37.377Z,979.27
2017-12-27T03:23:17.932Z,979.25
2017-12-27T03:23:58.493Z,979.25
2017-12-27T03:24:39.032Z,979.24
2017-12-27T03:25:19.572Z,979.24
2017-12-27T03:26:00.088Z,979.14
2017-12-27T03:26:40.620Z,979.11
2017-12-27T03:27:21.162Z,979.12
2017-12-27T03:28:01.709Z,979.07
2017-12-27T03:28:42.247Z,979.11
2017-12-27T03:29:22.776Z,979.1
2017-12-27T03:30:04.162Z,979.07
2017-12-27T03:30:44.694Z,979.05
2017-12-27T03:31:25.279Z,979.02
2017-12-27T03:32:05.805Z,978.97
2017-12-27T03:32:46.331Z,978.96
2017-12-27T03:33:26.892Z,978.91
2017-12-27T03:34:07.397Z,978.87
2017-12-27T03:34:47.959Z,978.88
2017-12-27T03:35:28.495Z,978.87
2017-12-27T03:36:09.051Z,978.84
2017-12-27T03:36:49.635Z,978.81
2017-12-27T03:37:30.212Z,978.79
2017-12-27T03:38:10.754Z,978.81
2017-12-27T03:38:51.259Z,978.78
2017-12-27T03:39:31.843Z,978.84
2017-12-27T03:40:12.373Z,978.81
2017-12-27T03:40:52.913Z,978.77
2017-12-27T03:41:33.471Z,978.78
2017-12-27T03:42:13.985Z,978.69
2017-12-27T03:42:54.496Z,978.68
2017-12-27T03:43:35.069Z,978.62
2017-12-27T03:44:15.604Z,978.62
2017-12-27T03:44:56.153Z,978.59
2017-12-27T03:45:36.689Z,978.58
2017-12-27T03:46:17.288Z,978.56
2017-12-27T03:46:57.799Z,978.54
2017-12-27T03:47:38.347Z,978.57
2017-12-27T03:48:18.913Z,978.57
2017-12-27T03:48:59.465Z,978.6
2017-12-27T03:49:39.997Z,978.7
2017-12-27T03:50:20.554Z,978.76
2017-12-27T03:51:01.098Z,978.76
2017-12-27T03:51:41.664Z,978.78
2017-12-27T03:52:22.196Z,978.72
2017-12-27T03:53:02.738Z,978.71
2017-12-27T03:53:43.278Z,978.7
2017-12-27T03:54:23.828Z,978.63
2017-12-27T03:55:04.394Z,978.65
2017-12-27T03:55:44.919Z,978.55
2017-12-27T03:56:25.462Z,978.46
2017-12-27T03:57:06.001Z,978.38
2017-12-27T03:57:46.542Z,978.36
2017-12-27T03:58:27.085Z,978.32
2017-12-27T03:59:07.649Z,978.3
2017-12-27T03:59:48.222Z,978.27
2017-12-27T04:00:28.760Z,978.26
2017-12-27T04:01:09.320Z,978.23
2017-12-27T04:01:49.858Z,978.3
2017-12-27T04:02:30.398Z,978.27
2017-12-27T04:03:10.903Z,978.23
2017-12-27T04:03:51.448Z,978.17
2017-12-27T04:04:31.990Z,978.15
2017-12-27T04:05:12.494Z,978.22
2017-12-27T04:05:53.037Z,978.23
2017-12-27T04:06:33.558Z,978.33
2017-12-27T04:07:14.117Z,978.29
2017-12-27T04:07:54.684Z,978.29
2017-12-27T04:08:35.213Z,978.25
2017-12-27T04:09:15.764Z,978.23
2017-12-27T04:09:56.289Z,978.29
2017-12-27T04:10:36.848Z,978.21
2017-12-27T04:11:17.404Z,978.22
2017-12-27T04:11:57.897Z,978.21
2017-12-27T04:12:38.450Z,978.21
2017-12-27T04:13:19.020Z,978.16
2017-12-27T04:13:59.578Z,978.14
2017-12-27T04:14:40.128Z,978.19
2017-12-27T04:15:20.653Z,978.2
2017-12-27T04:16:01.191Z,978.24
2017-12-27T04:16:41.719Z,978.21
2017-12-27T04:17:22.266Z,978.24
2017-12-27T04:18:02.819Z,978.23
2017-12-27T04:18:43.347Z,978.22
2017-12-27T04:19:23.899Z,978.25
2017-12-27T04:20:04.425Z,978.23
2017-12-27T04:20:44.976Z,978.25
2017-12-27T04:21:25.542Z,978.25
2017-12-27T04:22:06.057Z,978.25
2017-12-27T04:22:46.602Z,978.2
2017-12-27T04:23:27.140Z,978.25
2017-12-27T04:24:07.674Z,978.24
2017-12-27T04:24:48.202Z,978.23
2017-12-27T04:25:28.753Z,978.22
2017-12-27T04:26:09.321Z,978.3
2017-12-27T04:26:49.872Z,978.32
2017-12-27T04:27:30.385Z,978.31
2017-12-27T04:28:10.935Z,978.35
2017-12-27T04:28:51.506Z,978.3
2017-12-27T04:29:32.958Z,978.31
2017-12-27T04:30:12.589Z,978.38
2017-12-27T04:30:53.144Z,978.36
2017-12-27T04:31:33.660Z,978.38
2017-12-27T04:32:14.234Z,978.34
2017-12-27T04:32:54.802Z,978.28
2017-12-27T04:33:35.353Z,978.29
2017-12-27T04:34:15.918Z,978.38
2017-12-27T04:34:56.446Z,978.38
2017-12-27T04:35:37.015Z,978.39
2017-12-27T04:36:17.558Z,978.39
2017-12-27T04:36:58.081Z,978.4
2017-12-27T04:37:38.590Z,978.37
2017-12-27T04:38:19.145Z,978.4
2017-12-27T04:38:59.718Z,978.41
2017-12-27T04:39:40.261Z,978.38
2017-12-27T04:40:20.817Z,978.38
2017-12-27T04:41:01.347Z,978.37
2017-12-27T04:41:41.901Z,978.41
2017-12-27T04:42:22.435Z,978.38
2017-12-27T04:43:02.983Z,978.38
2017-12-27T04:43:43.529Z,978.4
2017-12-27T04:44:24.065Z,978.38
2017-12-27T04:45:04.621Z,978.44
2017-12-27T04:45:45.149Z,978.43
2017-12-27T04:46:25.673Z,978.42
2017-12-27T04:47:06.197Z,978.42
2017-12-27T04:47:46.739Z,978.39
2017-12-27T04:48:27.286Z,978.39
2017-12-27T04:49:07.837Z,978.44
2017-12-27T04:49:48.387Z,978.4
2017-12-27T04:50:28.928Z,978.45
2017-12-27T04:51:09.491Z,978.45
2017-12-27T04:51:50.025Z,978.52
2017-12-27T04:52:30.607Z,978.46
2017-12-27T04:53:11.099Z,978.43
2017-12-27T04:53:51.632Z,978.43
2017-12-27T04:54:32.197Z,978.46
2017-12-27T04:55:12.734Z,978.46
2017-12-27T04:55:53.297Z,978.46
2017-12-27T04:56:33.836Z,978.46
2017-12-27T04:57:14.368Z,978.44
2017-12-27T04:57:54.915Z,978.45
2017-12-27T04:58:35.532Z,978.5
2017-12-27T04:59:16.128Z,978.49
2017-12-27T04:59:56.657Z,978.42
2017-12-27T05:00:37.179Z,978.38
2017-12-27T05:01:17.716Z,978.36
2017-12-27T05:01:58.269Z,978.31
2017-12-27T05:02:38.761Z,978.27
2017-12-27T05:03:19.332Z,978.26
2017-12-27T05:03:59.839Z,978.34
2017-12-27T05:04:40.393Z,978.31
2017-12-27T05:05:20.962Z,978.35
2017-12-27T05:06:01.510Z,978.32
2017-12-27T05:06:42.016Z,978.28
2017-12-27T05:07:22.553Z,978.3
2017-12-27T05:08:03.104Z,978.31
2017-12-27T05:08:43.660Z,978.29
2017-12-27T05:09:24.188Z,978.29
2017-12-27T05:10:04.728Z,978.24
2017-12-27T05:10:45.276Z,978.32
2017-12-27T05:11:25.801Z,978.28
2017-12-27T05:12:06.350Z,978.28
2017-12-27T05:12:46.902Z,978.32
2017-12-27T05:13:27.447Z,978.32
2017-12-27T05:14:07.985Z,978.3
2017-12-27T05:14:49.467Z,978.25
2017-12-27T05:15:29.043Z,978.27
2017-12-27T05:16:09.590Z,978.23
2017-12-27T05:16:50.115Z,978.19
2017-12-27T05:17:30.695Z,978.26
2017-12-27T05:18:11.204Z,978.22
2017-12-27T05:18:51.753Z,978.23
2017-12-27T05:19:32.299Z,978.23
2017-12-27T05:20:12.807Z,978.26
2017-12-27T05:20:53.374Z,978.27
2017-12-27T05:21:33.911Z,978.25
2017-12-27T05:22:14.415Z,978.24
2017-12-27T05:22:54.966Z,978.23
2017-12-27T05:23:35.527Z,978.21
2017-12-27T05:24:16.050Z,978.25
2017-12-27T05:24:56.595Z,978.22
2017-12-27T05:25:37.119Z,978.27
2017-12-27T05:26:17.664Z,978.31
2017-12-27T05:26:58.187Z,978.24
2017-12-27T05:27:38.731Z,978.25
2017-12-27T05:28:19.258Z,978.34
2017-12-27T05:28:59.792Z,978.31
2017-12-27T05:29:40.359Z,978.26
2017-12-27T05:30:20.933Z,978.26
2017-12-27T05:31:01.458Z,978.16
2017-12-27T05:31:41.981Z,978.17
2017-12-27T05:32:22.540Z,978.26
2017-12-27T05:33:03.096Z,978.26
2017-12-27T05:33:43.634Z,978.27
2017-12-27T05:34:24.148Z,978.29
2017-12-27T05:35:04.699Z,978.27
2017-12-27T05:35:45.207Z,978.27
2017-12-27T05:36:25.753Z,978.32
2017-12-27T05:37:06.280Z,978.28
2017-12-27T05:37:46.852Z,978.15
2017-12-27T05:38:27.380Z,978.23
2017-12-27T05:39:07.934Z,978.24
2017-12-27T05:39:48.431Z,978.31
2017-12-27T05:40:28.988Z,978.3
2017-12-27T05:41:09.525Z,978.35
2017-12-27T05:41:50.076Z,978.3
2017-12-27T05:42:30.621Z,978.24
2017-12-27T05:43:11.163Z,978.28
2017-12-27T05:43:51.714Z,978.29
2017-12-27T05:44:32.241Z,978.21
2017-12-27T05:45:12.812Z,978.18
2017-12-27T05:45:53.323Z,978.17
2017-12-27T05:46:33.874Z,978.17
2017-12-27T05:47:14.408Z,978.19
2017-12-27T05:47:54.983Z,978.22
2017-12-27T05:48:35.539Z,978.21
2017-12-27T05:49:16.089Z,978.18
2017-12-27T05:49:56.691Z,978.28
2017-12-27T05:50:37.202Z,978.24
2017-12-27T05:51:17.770Z,978.19
2017-12-27T05:51:59.276Z,978.2
2017-12-27T05:52:39.840Z,978.24
2017-12-27T05:53:20.508Z,978.19
2017-12-27T05:54:01.044Z,978.22
2017-12-27T05:54:41.576Z,978.18
2017-12-27T05:55:22.104Z,978.16
2017-12-27T05:56:02.631Z,978.18
2017-12-27T05:56:43.151Z,978.19
2017-12-27T05:57:23.716Z,978.25
2017-12-27T05:58:04.249Z,978.26
2017-12-27T05:58:44.807Z,978.21
2017-12-27T05:59:25.344Z,978.23
2017-12-27T06:00:05.916Z,978.24
2017-12-27T06:00:46.446Z,978.22
2017-12-27T06:01:26.980Z,978.21
2017-12-27T06:02:07.534Z,978.21
2017-12-27T06:02:48.095Z,978.22
2017-12-27T06:03:28.619Z,978.28
2017-12-27T06:04:09.139Z,978.28
2017-12-27T06:04:49.661Z,978.27
2017-12-27T06:05:30.225Z,978.24
2017-12-27T06:06:10.760Z,978.3
2017-12-27T06:06:51.309Z,978.29
2017-12-27T06:07:31.863Z,978.25
2017-12-27T06:08:12.409Z,978.22
2017-12-27T06:08:52.970Z,978.21
2017-12-27T06:09:33.505Z,978.22
2017-12-27T06:10:14.049Z,978.27
2017-12-27T06:10:54.580Z,978.27
2017-12-27T06:11:35.145Z,978.27
2017-12-27T06:12:15.654Z,978.22
2017-12-27T06:12:56.219Z,978.19
2017-12-27T06:13:36.741Z,978.17
2017-12-27T06:14:17.288Z,978.18
2017-12-27T06:14:57.792Z,978.21
2017-12-27T06:15:38.317Z,978.16
2017-12-27T06:16:18.851Z,978.1
2017-12-27T06:16:59.433Z,978.16
2017-12-27T06:17:39.949Z,978.15
2017-12-27T06:18:20.482Z,978.13
2017-12-27T06:19:01.026Z,978.11
2017-12-27T06:19:41.611Z,978.14
2017-12-27T06:20:22.034Z,978.16
2017-12-27T06:21:02.565Z,978.15
2017-12-27T06:21:43.119Z,978.07
2017-12-27T06:22:23.668Z,978.09
2017-12-27T06:23:04.201Z,978.03
2017-12-27T06:23:45.490Z,978.07
2017-12-27T06:24:25.312Z,978.02
2017-12-27T06:25:06.820Z,978.02
2017-12-27T06:25:47.366Z,978.03
2017-12-27T06:26:27.920Z,978.06
2017-12-27T06:27:08.471Z,977.99
2017-12-27T06:27:49.023Z,977.97
2017-12-27T06:28:29.570Z,977.96
2017-12-27T06:29:10.104Z,977.98
2017-12-27T06:29:50.651Z,977.98
2017-12-27T06:30:31.153Z,977.98
2017-12-27T06:31:11.783Z,977.88
2017-12-27T06:31:52.251Z,977.93
2017-12-27T06:32:32.812Z,977.93
2017-12-27T06:33:13.350Z,977.88
2017-12-27T06:33:53.912Z,977.88
2017-12-27T06:34:34.430Z,977.86
2017-12-27T06:35:14.981Z,977.85
2017-12-27T06:35:55.506Z,977.84
2017-12-27T06:36:36.068Z,977.79
2017-12-27T06:37:16.617Z,977.86
2017-12-27T06:37:57.191Z,977.8
2017-12-27T06:38:37.740Z,977.75
2017-12-27T06:39:18.306Z,977.75
2017-12-27T06:39:58.825Z,977.74
2017-12-27T06:40:39.379Z,977.67
2017-12-27T06:41:19.909Z,977.69
2017-12-27T06:42:00.448Z,977.66
2017-12-27T06:42:40.996Z,977.68
2017-12-27T06:43:21.510Z,977.7
2017-12-27T06:44:02.059Z,977.71
2017-12-27T06:44:42.630Z,977.66
2017-12-27T06:45:23.148Z,977.67
2017-12-27T06:46:03.700Z,977.66
2017-12-27T06:46:44.233Z,977.68
2017-12-27T06:47:24.772Z,977.66
2017-12-27T06:48:05.297Z,977.7
2017-12-27T06:48:45.850Z,977.65
2017-12-27T06:49:26.350Z,977.6
2017-12-27T06:50:06.910Z,977.59
2017-12-27T06:50:47.433Z,977.55
2017-12-27T06:51:27.962Z,977.53
2017-12-27T06:52:08.537Z,977.61
2017-12-27T06:52:49.077Z,977.58
2017-12-27T06:53:29.623Z,977.57
2017-12-27T06:54:10.184Z,977.56
2017-12-27T06:54:50.739Z,977.51
2017-12-27T06:55:31.288Z,977.5
2017-12-27T06:56:11.928Z,977.49
2017-12-27T06:56:52.493Z,977.52
2017-12-27T06:57:33.038Z,977.52
2017-12-27T06:58:13.581Z,977.46
2017-12-27T06:58:54.135Z,977.47
2017-12-27T06:59:34.666Z,977.41
2017-12-27T07:00:15.206Z,977.45
2017-12-27T07:00:55.783Z,977.45
2017-12-27T07:01:36.337Z,977.45
2017-12-27T07:02:16.872Z,977.46
2017-12-27T07:02:57.427Z,977.45
2017-12-27T07:03:37.974Z,977.37
2017-12-27T07:04:18.539Z,977.39
2017-12-27T07:04:59.096Z,977.37
2017-12-27T07:05:39.617Z,977.34
2017-12-27T07:06:20.180Z,977.36
2017-12-27T07:07:00.708Z,977.35
2017-12-27T07:07:41.261Z,977.27
2017-12-27T07:08:21.814Z,977.26
2017-12-27T07:09:02.387Z,977.21
2017-12-27T07:09:42.932Z,977.24
2017-12-27T07:10:23.483Z,977.25
2017-12-27T07:11:04.027Z,977.25
2017-12-27T07:11:44.547Z,977.17
2017-12-27T07:12:25.090Z,977.18
2017-12-27T07:13:06.523Z,977.18
2017-12-27T07:13:46.457Z,977.19
2017-12-27T07:14:27.018Z,977.15
2017-12-27T07:15:07.548Z,977.17
2017-12-27T07:15:48.095Z,977.17
2017-12-27T07:16:28.654Z,977.17
2017-12-27T07:17:09.197Z,977.08
2017-12-27T07:17:49.753Z,977.12
2017-12-27T07:18:30.308Z,977.07
2017-12-27T07:19:10.867Z,977.07
2017-12-27T07:19:51.409Z,977.09
2017-12-27T07:20:31.966Z,977.1
2017-12-27T07:21:12.508Z,977.07
2017-12-27T07:21:53.075Z,977.04
2017-12-27T07:22:33.636Z,977.04
2017-12-27T07:23:14.172Z,977.02
2017-12-27T07:23:54.728Z,977.02
2017-12-27T07:24:35.290Z,976.99
2017-12-27T07:25:15.842Z,977.02
2017-12-27T07:25:56.373Z,977.01
2017-12-27T07:26:36.900Z,977
2017-12-27T07:27:17.486Z,976.99
2017-12-27T07:27:58.020Z,977.01
2017-12-27T07:28:38.570Z,976.99
2017-12-27T07:29:19.117Z,977.03
2017-12-27T07:29:59.668Z,976.98
2017-12-27T07:30:40.194Z,976.98
2017-12-27T07:31:20.719Z,977
2017-12-27T07:32:01.227Z,976.96
2017-12-27T07:32:41.762Z,976.96
2017-12-27T07:33:22.318Z,976.92
2017-12-27T07:34:02.857Z,976.93
2017-12-27T07:34:43.447Z,976.86
2017-12-27T07:35:24.012Z,976.86
2017-12-27T07:36:04.600Z,976.85
2017-12-27T07:36:45.072Z,976.84
2017-12-27T07:37:25.602Z,976.8
2017-12-27T07:38:06.148Z,976.83
2017-12-27T07:38:46.697Z,976.82
2017-12-27T07:39:27.282Z,976.78
2017-12-27T07:40:07.781Z,976.8
2017-12-27T07:40:48.320Z,976.77
2017-12-27T07:41:28.879Z,976.8
2017-12-27T07:42:09.448Z,976.73
2017-12-27T07:42:49.997Z,976.73
2017-12-27T07:43:30.528Z,976.76
2017-12-27T07:44:11.069Z,976.8
2017-12-27T07:44:51.634Z,976.78
2017-12-27T07:45:32.148Z,976.74
2017-12-27T07:46:12.686Z,976.77
2017-12-27T07:46:53.229Z,976.82
2017-12-27T07:47:33.816Z,976.79
2017-12-27T07:48:14.326Z,976.75
2017-12-27T07:48:54.834Z,976.77
2017-12-27T07:49:35.409Z,976.77
2017-12-27T07:50:15.994Z,976.74
2017-12-27T07:50:56.491Z,976.78
2017-12-27T07:51:37.032Z,976.72
2017-12-27T07:52:17.564Z,976.68
2017-12-27T07:52:58.110Z,976.78
2017-12-27T07:53:38.656Z,976.7
2017-12-27T07:54:19.211Z,976.72
2017-12-27T07:54:59.785Z,976.69
2017-12-27T07:55:40.331Z,976.75
2017-12-27T07:56:20.840Z,976.67
2017-12-27T07:57:01.382Z,976.67
2017-12-27T07:57:41.894Z,976.64
2017-12-27T07:58:22.477Z,976.64
2017-12-27T07:59:03.031Z,976.64
2017-12-27T07:59:43.570Z,976.65
2017-12-27T08:00:24.127Z,976.6
2017-12-27T08:01:05.533Z,976.59
2017-12-27T08:01:45.233Z,976.59
2017-12-27T08:02:25.795Z,976.6
2017-12-27T08:03:06.319Z,976.58
2017-12-27T08:03:46.856Z,976.6
2017-12-27T08:04:27.409Z,976.6
2017-12-27T08:05:07.946Z,976.58
2017-12-27T08:05:48.542Z,976.54
2017-12-27T08:06:29.073Z,976.5
2017-12-27T08:07:09.628Z,976.51
2017-12-27T08:07:50.138Z,976.49
2017-12-27T08:08:30.680Z,976.45
2017-12-27T08:09:11.242Z,976.43
2017-12-27T08:09:51.772Z,976.45
2017-12-27T08:10:32.379Z,976.46
2017-12-27T08:11:13.036Z,976.46
2017-12-27T08:11:53.577Z,976.41
2017-12-27T08:12:34.152Z,976.4
2017-12-27T08:13:14.709Z,976.41
2017-12-27T08:13:55.261Z,976.35
2017-12-27T08:14:36.531Z,976.37
2017-12-27T08:15:16.367Z,976.34
2017-12-27T08:15:56.943Z,976.31
2017-12-27T08:16:37.509Z,976.3
2017-12-27T08:17:18.048Z,976.26
2017-12-27T08:17:58.603Z,976.33
2017-12-27T08:18:39.191Z,976.35
2017-12-27T08:19:19.713Z,976.34
2017-12-27T08:20:00.267Z,976.38
2017-12-27T08:20:41.026Z,976.37
2017-12-27T08:21:21.582Z,976.33
2017-12-27T08:22:02.151Z,976.34
2017-12-27T08:22:42.708Z,976.31
2017-12-27T08:23:23.226Z,976.32
2017-12-27T08:24:03.735Z,976.29
2017-12-27T08:24:44.272Z,976.26
2017-12-27T08:25:24.827Z,976.26
2017-12-27T08:26:05.375Z,976.28
2017-12-27T08:26:45.908Z,976.26
2017-12-27T08:27:26.497Z,976.24